Free Trial

This company has been marked as potentially delisted and may not be actively trading.

PROS (PRO) Institutional Ownership

PROS logo

Institutional Ownership Changes (13F Filings) for PROS (NYSE:PRO)

Current
Institutional Ownership
Percentage
94.27%
Number of
Institutional Buyers
(last 12 months)
114
Total
Institutional Inflows
(last 12 months)
$356.56M
Number of
Institutional Sellers
(last 12 months)
58
Total
Institutional Outflows
(last 12 months)
$224.63M
Get PRO Insider Trade Alerts

Want to know when executives and insiders are buying or selling PROS stock? Sign up for InsiderTrades.com's daily newsletter to get the latest insider transactions delivered to your inbox daily.

SMS is currently available in Australia, Belgium, Canada, France, Germany, Ireland, Italy, New Zealand, the Netherlands, Singapore, South Africa, Spain, Switzerland, the United Kingdom, and the United States. By entering your phone number and clicking the sign-up button, you agree to receive periodic text messages from MarketBeat at the phone number you submitted, including texts that may be sent using an automatic telephone dialing system. Message and data rates may apply. Message frequency will vary. Messages will consist of stock alerts, news stories, and partner advertisements/offers. Consent is not a condition of the purchase of any goods or services. Text HELP for help/customer support. Unsubscribe at any time by replying "STOP" to any text message that you receive from MarketBeat or by visiting our mailing preferences page. Read our full terms of service and privacy policy.
Skip Chart & View Institutional Buying and Selling Data

PRO Institutional Buying and Selling by Quarter

PROS Major Shareholders & Ownership History

Reporting DateMajor Shareholder NameShares HeldMarket Value% of PortfolioQuarterly Change in SharesOwnership in CompanyDetails
1/1/2026JPMorgan Chase & Co.42,405$971K0.0%-79.8%0.088%
11/17/2025Morningstar Investment Management LLC38,283$877K0.0%N/A0.079%
11/17/2025First Trust Capital Management L.P.892,412$20.45M1.3%N/A1.848%
11/17/2025Woodline Partners LP465,317$10.66M0.1%+2,166.0%0.963%
11/17/2025Dark Forest Capital Management LP8,999$206K0.0%N/A0.019%
11/17/2025Alyeska Investment Group L.P.1,434,931$32.87M0.1%-56.6%2.971%
11/17/2025 Wasatch Advisors LP343,114$7.86M0.0%-44.7%0.710%
11/17/2025Water Island Capital LLC492,502$11.28M1.4%N/A1.020%
11/17/2025Westerly Capital Management LLC949,750$21.76M6.8%-4.9%1.966%
11/17/2025Verition Fund Management LLC19,700$451K0.0%N/A0.041%
11/17/2025Susquehanna Fundamental Investments LLC14,200$325K0.0%-20.5%0.029%
11/17/2025Qube Research & Technologies Ltd279,861$6.41M0.0%-34.7%0.579%
11/17/2025Prelude Capital Management LLC42,787$980K0.1%N/A0.089%
11/17/2025PenderFund Capital Management Ltd.5,100$117K0.0%N/A0.011%
11/17/2025Pentwater Capital Management LP250,000$5.73M0.0%N/A0.518%
11/17/2025Nomura Holdings Inc.1,583,098$36.27M0.1%+367.0%3.278%
11/17/2025Mariner LLC17,377$398K0.0%+46.9%0.036%
11/17/2025Mak Capital One LLC1,413,426$32.38M5.0%+112.4%2.926%
11/17/2025Millennium Management LLC141,393$3.24M0.0%+51.1%0.293%
11/17/2025MIRAE ASSET GLOBAL ETFS HOLDINGS Ltd.570,327$13.07M0.0%-0.5%1.181%
11/17/2025Moore Capital Management LP25,000$573K0.0%N/A0.052%
11/17/2025Brevan Howard Capital Management LP9,750$223K0.0%N/A0.020%
11/17/2025Capula Management Ltd199,059$4.56M0.0%N/A0.412%
11/17/2025Bank of America Corp DE1,121,170$25.69M0.0%+106.7%2.321%
11/17/2025Algert Global LLC108,372$2.48M0.0%-58.7%0.224%
11/17/2025Alliancebernstein L.P.1,011,334$23.17M0.0%+1,954.9%2.094%
11/17/2025Ameriprise Financial Inc.90,884$2.09M0.0%+36.1%0.188%
11/14/2025Schonfeld Strategic Advisors LLC174,922$4.01M0.0%N/A0.362%
11/14/2025AQR Arbitrage LLC460,205$10.54M0.3%N/A0.953%
11/14/2025Disciplined Growth Investors Inc. MN501,748$11.50M0.2%-64.2%1.039%
11/14/2025UBS AM A Distinct Business Unit of UBS Asset Management Americas LLC86,888$1.99M0.0%-46.9%0.180%
11/14/2025Squarepoint Ops LLC154,622$3.54M0.0%-29.6%0.320%
11/13/2025Marshall Wace LLP259,011$5.93M0.0%-68.8%0.536%
11/13/2025EVR Research LP2,000,000$45.82M27.4%-7.0%4.141%
11/13/2025Arrowstreet Capital Limited Partnership39,553$906K0.0%+41.4%0.082%
11/13/2025Sei Investments Co.16,749$384K0.0%-86.8%0.035%
11/13/2025UBS Group AG607,404$13.92M0.0%+77.5%1.258%
11/13/2025Connor Clark & Lunn Investment Management Ltd.466,788$10.69M0.0%-4.0%0.966%
11/13/2025Franklin Resources Inc.31,394$719K0.0%+6.4%0.065%
11/13/2025Legal & General Group Plc50,854$1.17M0.0%+12.0%0.105%
11/13/2025Vestcor Inc183,729$4.21M0.1%N/A0.380%
11/13/2025Swiss National Bank83,500$1.91M0.0%+1.6%0.173%
11/13/2025Russell Investments Group Ltd.3,893$89K0.0%-95.0%0.008%
11/13/2025First Trust Advisors LP547,903$12.55M0.0%+8.4%1.134%
11/12/2025Gabelli Funds LLC58,100$1.33M0.0%N/A0.120%
11/12/2025Gamco Investors INC. ET AL12,000$275K0.0%N/A0.025%
11/12/2025GABELLI & Co INVESTMENT ADVISERS INC.30,900$708K0.1%N/A0.064%
11/12/2025Longfellow Investment Management Co. LLC3,313$76K0.0%N/A0.007%
11/12/2025Barclays PLC1,802,767$41.30M0.0%+54.7%3.733%
11/12/2025Picton Mahoney Asset Management250,000$5.73M0.1%N/A0.518%
11/12/2025Royce & Associates LP373,516$8.56M0.1%+6.0%0.773%
11/12/2025Intech Investment Management LLC11,869$272K0.0%-29.7%0.025%
11/10/2025Greenland Capital Management LP18,441$422K0.0%N/A0.038%
11/10/2025Ameritas Investment Partners Inc.3,656$84K0.0%-17.7%0.008%
11/10/2025Gardner Lewis Asset Management L P34,794$797K0.2%N/A0.072%
11/10/2025Citigroup Inc.154,339$3.54M0.0%+481.3%0.320%
11/10/2025 BCK Capital Management LP30,604$701K0.7%N/A0.063%
11/7/2025Skandinaviska Enskilda Banken AB publ 12,000$275K0.0%N/A0.025%
11/7/2025Vanguard Group Inc.5,187,003$118.83M0.0%-13.2%10.740%
11/7/2025 Credit Industriel ET Commercial135,000$3.09M0.3%N/A0.280%
11/7/2025JPMorgan Chase & Co.42,405$971K0.0%-79.8%0.088%
11/6/2025 Alpine Associates Management Inc.371,408$8.51M0.5%N/A0.769%
11/6/2025ING Groep NV200,000$4.58M0.0%N/A0.414%
11/6/2025Rhumbline Advisers63,859$1.46M0.0%-2.4%0.132%
11/6/2025 ProShare Advisors LLC19,782$453K0.0%N/A0.041%
11/5/2025 Savant Capital LLC9,005$206K0.0%N/A0.019%
11/5/2025 Envestnet Asset Management Inc.165,688$3.80M0.0%-42.6%0.343%
11/4/2025Brown Capital Management LLC324,885$7.44M0.3%-38.4%0.673%
11/4/2025Allianz Asset Management GmbH272,300$6.24M0.0%N/A0.564%
11/4/2025State of Wyoming25,653$588K0.1%+94.6%0.053%
11/4/2025 Principal Financial Group Inc.86,249$1.98M0.0%+156.6%0.179%
11/3/2025 AlphaQuest LLC2,372$54K0.0%-82.7%0.005%
11/3/2025New York State Common Retirement Fund9,477$217K0.0%-95.4%0.020%
11/3/2025Federated Hermes Inc.13,794$316K0.0%-95.4%0.029%
10/31/2025Scalar Gauge Management LLC60,000$1.38M0.7%N/A0.124%
10/30/2025Universal Beteiligungs und Servicegesellschaft mbH30,000$687K0.0%N/A0.062%
10/29/2025 Wealth Enhancement Advisory Services LLC17,401$399K0.0%N/A0.035%
10/28/2025 Stephens Investment Management Group LLC941,893$21.58M0.3%-5.0%1.919%
10/24/2025 State of Alaska Department of Revenue1,401$32K0.0%N/A0.003%
10/23/2025 SG Americas Securities LLC10,825$248K0.0%-68.8%0.023%
10/16/2025Rice Hall James & Associates LLC88,984$2.04M0.1%-64.3%0.185%
10/15/2025CWM LLC20,510$470K0.0%+52.9%0.043%
10/15/2025 Inspire Investing LLC19,692$451K0.0%-21.4%0.041%
10/14/2025 Kopion Asset Management LLC672,268$15.40M10.0%+4.3%1.397%
10/7/2025 Assenagon Asset Management S.A.256,880$5.89M0.0%+170.3%0.534%
8/27/2025Squarepoint Ops LLC219,658$3.44M0.0%+23.8%0.457%
8/19/2025State of Wyoming13,182$206K0.0%-44.5%0.027%
8/18/2025Nomura Holdings Inc.339,027$5.31M0.0%-15.5%0.705%
8/15/2025Tower Research Capital LLC TRC 6,851$107K0.0%+319.3%0.014%
8/15/2025State of Tennessee Department of Treasury11,173$175K0.0%N/A0.023%
8/15/2025Sender Co & Partners Inc.29,242$458K0.1%N/A0.061%
8/15/2025 Wasatch Advisors LP620,416$9.72M0.1%N/A1.290%
8/15/2025Tensile Capital Management LP800,136$12.53M1.5%-21.0%1.663%
8/15/2025Shay Capital LLC18,200$285K0.0%N/A0.038%
8/15/2025Man Group plc39,219$614K0.0%+133.2%0.082%
8/15/2025Engineers Gate Manager LP102,569$1.61M0.0%+126.7%0.213%
8/15/2025BlackBarn Capital Partners LP227,387$3.56M0.2%N/A0.473%
8/15/2025Balyasny Asset Management L.P.22,080$346K0.0%-75.1%0.046%
8/15/2025Ameriprise Financial Inc.66,792$1.05M0.0%+63.7%0.139%
8/15/2025AQR Capital Management LLC282,979$4.43M0.0%+117.1%0.588%


PRO Institutional Ownership - Frequently Asked Questions

Who are the largest shareholders of PRO shares?

During the previous two years, 216 institutional investors and hedge funds held shares of PROS. The most heavily invested institutionals were Vanguard Group Inc. ($118.83M), Conestoga Capital Advisors LLC ($93.51M), EVR Research LP ($45.82M), Barclays PLC ($41.30M), Nomura Holdings Inc. ($36.27M), RGM Capital LLC ($35.26M), and Alyeska Investment Group L.P. ($32.87M).Learn more on PROS's institutional investors.

What percentage of PROS's stock is owned by institutional investors?

94.27% of PROS's stock is owned by institutional investors. Learn more on PRO's institutional investor holdings.

Which institutional investors have been buying PROS's stock?

Of the 182 institutional investors that purchased PROS's stock in the last 24 months, the following investors and hedge funds have bought the highest volume of shares: Alyeska Investment Group L.P. ($1.35M), Nomura Holdings Inc. ($1.29M), Nuveen LLC ($1.26M), Nuveen Asset Management LLC ($1.07M), Jacobs Levy Equity Management Inc. ($967.67K), Alliancebernstein L.P. ($962.12K), and Tensile Capital Management LP ($922.74K).

How much institutional buying is happening at PROS?

Institutional investors have bought a total of 17,570,161 shares in the last 24 months. This purchase volume represents approximately $356.56M in transactions.

Which of PROS's major shareholders have been selling company stock?

Of the 58 institutional investors that sold PROS's stock in the last 24 months, the following investors and hedge funds have sold the highest volume of shares: Alyeska Investment Group L.P. ($1.88M), Rockefeller Capital Management L.P. ($1.05M), Disciplined Growth Investors Inc. MN ($899.03K), Vanguard Group Inc. ($791.41K), RGM Capital LLC ($687.98K), Marshall Wace LLP ($571.88K), and Fred Alger Management LLC ($500.94K).

How much institutional selling is happening at PROS?

Institutional investors have sold a total of 10,885,667 shares in the last 24 months. This volume of shares sold represents approximately $224.63M in transactions.



This page (NYSE:PRO) was last updated on 5/6/2026 by MarketBeat.com Staff.
From Our Partners